Auburn, Georgia
Current Conditions -  °F | °C
As of 3:45 PM on Thursday 27 Nov 2014 (Local Time) from KLZU Reporting Station
Broken Clouds Broken Clouds  
Wind Chill:   Ceiling: 4000
Heat Index:   Visibility: 10mi
Dew Point: -5°   Wind: 13mph
Humidity: 46%   Direction: 290°WNW
Pressure: 30.26"   Gusts: 21mph
Location:  34.01°N, 83.83°W
Report Text: KLZU 272045Z 29011G18KT 10SM BKN040 06/M05 A3026 RMK ATIS P; RWY 25 JW
Loading
Personal Weather Stations






























Interactive Weather Map New forecast layout! Learn more

10-Day Weather Forecast

Advertisements
Track Severe Weather on mobile